createdAt,value
2022-08-16T00:02:21.207Z,18.18
2022-08-16T00:04:51.121Z,18.12
2022-08-16T00:07:18.266Z,18.12
2022-08-16T00:09:45.566Z,18.13
2022-08-16T00:12:12.818Z,18.01
2022-08-16T00:14:45.103Z,18.03
2022-08-16T00:17:18.794Z,18.14
2022-08-16T00:19:46.598Z,17.93
2022-08-16T00:22:15.992Z,17.97
2022-08-16T00:24:44.940Z,18.09
2022-08-16T00:27:17.515Z,17.99
2022-08-16T00:29:46.059Z,18.09
2022-08-16T00:32:17.977Z,18.17
2022-08-16T00:34:52.967Z,18.14
2022-08-16T00:37:56.862Z,17.98
2022-08-16T00:40:33.411Z,18.07
2022-08-16T00:43:04.715Z,17.97
2022-08-16T00:45:59.960Z,17.97
2022-08-16T00:48:30.962Z,17.70
2022-08-16T00:51:00.577Z,17.87
2022-08-16T00:53:32.078Z,17.75
2022-08-16T00:56:05.521Z,17.78
2022-08-16T00:58:36.422Z,17.77
2022-08-16T01:01:23.233Z,17.78
2022-08-16T01:03:53.913Z,17.41
2022-08-16T01:06:40.340Z,17.60
2022-08-16T01:09:09.763Z,17.56
2022-08-16T01:11:55.020Z,17.68
2022-08-16T01:14:30.087Z,17.66
2022-08-16T01:16:59.791Z,17.60
2022-08-16T01:19:48.543Z,17.61
2022-08-16T01:22:52.744Z,17.66
2022-08-16T01:25:33.739Z,17.51
2022-08-16T01:28:06.796Z,17.45
2022-08-16T01:30:49.800Z,17.61
2022-08-16T01:33:19.859Z,17.64
2022-08-16T01:36:11.612Z,17.67
2022-08-16T01:38:49.358Z,17.54
2022-08-16T01:41:29.953Z,17.48
2022-08-16T01:44:00.931Z,17.54
2022-08-16T01:46:45.066Z,17.41
2022-08-16T01:49:22.098Z,17.52
2022-08-16T01:51:56.112Z,17.58
2022-08-16T01:54:31.444Z,17.55
2022-08-16T01:57:01.026Z,17.36
2022-08-16T01:59:28.745Z,17.48
2022-08-16T02:01:59.858Z,17.70
2022-08-16T02:04:49.227Z,17.41
2022-08-16T02:07:23.778Z,17.49
2022-08-16T02:09:56.919Z,17.58
2022-08-16T02:12:50.339Z,17.48
2022-08-16T02:15:24.827Z,17.56
2022-08-16T02:17:58.785Z,17.53
2022-08-16T02:20:31.567Z,17.62
2022-08-16T02:23:00.283Z,17.53
2022-08-16T02:25:52.100Z,17.28
2022-08-16T02:28:19.375Z,17.43
2022-08-16T02:30:50.902Z,17.23
2022-08-16T02:33:19.791Z,17.40
2022-08-16T02:35:55.459Z,17.50
2022-08-16T02:38:31.698Z,17.54
2022-08-16T02:41:02.278Z,17.49
2022-08-16T02:43:36.780Z,17.48
2022-08-16T02:46:07.880Z,17.53
2022-08-16T02:48:37.887Z,17.77
2022-08-16T02:51:11.502Z,17.60
2022-08-16T02:53:45.768Z,17.76
2022-08-16T02:56:18.014Z,17.70
2022-08-16T02:58:48.667Z,17.78
2022-08-16T03:01:39.619Z,18.03
2022-08-16T03:04:41.208Z,18.11
2022-08-16T03:07:00.515Z,18.27
2022-08-16T03:09:38.849Z,19.71
2022-08-16T03:12:06.392Z,20.84
2022-08-16T03:14:35.348Z,21.83
2022-08-16T03:17:32.236Z,22.33
2022-08-16T03:20:04.102Z,23.47
2022-08-16T03:22:37.099Z,23.49
2022-08-16T03:25:12.944Z,24.04
2022-08-16T03:27:52.067Z,24.56
2022-08-16T03:30:30.194Z,25.18
2022-08-16T03:33:03.871Z,25.42
2022-08-16T03:35:44.799Z,26.01
2022-08-16T03:38:35.341Z,26.35
2022-08-16T03:41:25.409Z,26.73
2022-08-16T03:44:13.965Z,26.68
2022-08-16T03:47:01.044Z,27.25
2022-08-16T03:49:36.486Z,27.79
2022-08-16T03:52:06.199Z,27.07
2022-08-16T03:54:35.594Z,27.39
2022-08-16T03:57:05.138Z,26.91
2022-08-16T03:59:39.039Z,26.33
2022-08-16T04:02:22.175Z,25.97
2022-08-16T04:04:51.755Z,26.02
2022-08-16T04:07:18.693Z,26.68
2022-08-16T04:09:47.501Z,27.19
2022-08-16T04:12:53.626Z,27.38
2022-08-16T04:15:02.719Z,27.56
2022-08-16T04:17:35.084Z,27.57
2022-08-16T04:20:04.641Z,27.35
2022-08-16T04:22:39.809Z,27.96
2022-08-16T04:25:07.290Z,28.61
2022-08-16T04:27:37.521Z,27.58
2022-08-16T04:30:11.210Z,27.31
2022-08-16T04:32:49.126Z,27.60
2022-08-16T04:35:21.209Z,27.00
2022-08-16T04:37:53.802Z,26.98
2022-08-16T04:40:36.705Z,26.54
2022-08-16T04:43:04.901Z,27.44
2022-08-16T04:45:35.591Z,26.76
2022-08-16T04:48:22.051Z,27.08
2022-08-16T04:51:02.236Z,26.99
2022-08-16T04:53:44.037Z,26.70
2022-08-16T04:56:11.877Z,26.59
2022-08-16T04:58:45.857Z,27.13
2022-08-16T05:01:16.241Z,26.62
2022-08-16T05:03:59.976Z,26.37
2022-08-16T05:06:45.231Z,25.89
2022-08-16T05:09:22.992Z,26.17
2022-08-16T05:11:57.522Z,26.00
2022-08-16T05:14:42.086Z,25.73
2022-08-16T05:17:24.871Z,25.52
2022-08-16T05:19:57.400Z,25.50
2022-08-16T05:22:32.346Z,25.66
2022-08-16T05:25:09.252Z,25.74
2022-08-16T05:27:43.518Z,25.82
2022-08-16T05:30:34.792Z,25.92
2022-08-16T05:33:08.915Z,25.40
2022-08-16T05:35:55.742Z,25.74
2022-08-16T05:38:32.427Z,25.19
2022-08-16T05:41:09.279Z,25.62
2022-08-16T05:43:43.470Z,25.92
2022-08-16T05:46:28.927Z,25.68
2022-08-16T05:49:05.764Z,25.74
2022-08-16T05:51:39.031Z,25.85
2022-08-16T05:54:14.095Z,25.63
2022-08-16T05:56:42.925Z,25.92
2022-08-16T05:59:13.443Z,26.11
2022-08-16T06:01:41.175Z,25.50
2022-08-16T06:04:13.118Z,25.81
2022-08-16T06:06:57.718Z,25.64
2022-08-16T06:09:42.933Z,25.74
2022-08-16T06:12:27.177Z,26.05
2022-08-16T06:15:04.258Z,25.52
2022-08-16T06:17:41.513Z,25.39
2022-08-16T06:20:35.226Z,25.62
2022-08-16T06:23:17.755Z,25.69
2022-08-16T06:25:56.483Z,25.04
2022-08-16T06:28:34.908Z,25.28
2022-08-16T06:31:07.176Z,25.48
2022-08-16T06:33:41.892Z,25.68
2022-08-16T06:36:14.220Z,25.71
2022-08-16T06:38:55.630Z,25.80
2022-08-16T06:41:59.566Z,26.06
2022-08-16T06:44:49.874Z,25.97
2022-08-16T06:47:53.907Z,26.43
2022-08-16T06:50:29.671Z,26.46
2022-08-16T06:53:08.494Z,26.35
2022-08-16T06:55:46.316Z,26.37
2022-08-16T06:58:22.617Z,26.57
2022-08-16T07:01:00.954Z,26.73
2022-08-16T07:03:32.816Z,26.40
2022-08-16T07:06:21.934Z,26.55
2022-08-16T07:08:55.720Z,26.58
2022-08-16T07:11:47.244Z,26.51
2022-08-16T07:14:26.435Z,26.26
2022-08-16T07:16:59.256Z,27.06
2022-08-16T07:20:02.187Z,27.00
2022-08-16T07:22:52.843Z,26.33
2022-08-16T07:25:17.715Z,26.67
2022-08-16T07:27:54.921Z,26.77
2022-08-16T07:30:38.887Z,26.37
2022-08-16T07:33:52.683Z,27.24
2022-08-16T07:36:26.706Z,27.37
2022-08-16T07:38:57.192Z,27.29
2022-08-16T07:41:25.651Z,27.63
2022-08-16T07:43:59.370Z,27.52
2022-08-16T07:46:36.915Z,27.67
2022-08-16T07:49:21.706Z,27.70
2022-08-16T07:51:48.623Z,27.67
2022-08-16T07:54:21.348Z,27.57
2022-08-16T07:57:07.919Z,27.46
2022-08-16T07:59:45.621Z,27.73
2022-08-16T08:02:20.547Z,27.62
2022-08-16T08:04:53.234Z,27.83
2022-08-16T08:07:20.746Z,27.90
2022-08-16T08:09:50.317Z,27.19
2022-08-16T08:12:32.112Z,27.71
2022-08-16T08:15:11.433Z,27.54
2022-08-16T08:17:43.960Z,27.52
2022-08-16T08:20:26.701Z,28.01
2022-08-16T08:23:01.674Z,27.93
2022-08-16T08:25:54.949Z,28.18
2022-08-16T08:28:26.491Z,28.17
2022-08-16T08:31:02.955Z,28.45
2022-08-16T08:33:35.192Z,28.44
2022-08-16T08:36:06.313Z,28.45
2022-08-16T08:38:44.178Z,28.36
2022-08-16T08:41:18.835Z,28.65
2022-08-16T08:43:52.091Z,28.51
2022-08-16T08:47:00.046Z,28.99
2022-08-16T08:49:46.258Z,28.67
2022-08-16T08:52:34.238Z,28.84
2022-08-16T08:55:10.791Z,28.20
2022-08-16T08:57:42.364Z,28.64
2022-08-16T09:00:34.175Z,28.34
2022-08-16T09:03:19.160Z,28.42
2022-08-16T09:05:51.491Z,28.63
2022-08-16T09:08:22.257Z,28.85
2022-08-16T09:11:02.967Z,28.86
2022-08-16T09:13:32.882Z,29.10
2022-08-16T09:16:00.354Z,28.84
2022-08-16T09:18:35.621Z,28.80
2022-08-16T09:21:05.874Z,29.01
2022-08-16T09:23:36.218Z,29.12
2022-08-16T09:26:44.418Z,29.20
2022-08-16T09:29:16.871Z,28.99
2022-08-16T09:31:53.620Z,29.45
2022-08-16T09:34:20.782Z,29.67
2022-08-16T09:36:49.635Z,29.22
2022-08-16T09:39:21.732Z,29.38
2022-08-16T09:41:53.699Z,29.13
2022-08-16T09:45:11.994Z,29.19
2022-08-16T09:47:12.510Z,29.26
2022-08-16T09:49:40.769Z,29.39
2022-08-16T09:52:10.327Z,29.59
2022-08-16T09:54:38.711Z,29.55
2022-08-16T09:57:12.161Z,29.66
2022-08-16T09:59:42.178Z,29.65
2022-08-16T10:02:22.919Z,29.70
2022-08-16T10:05:01.546Z,29.85
2022-08-16T10:07:49.045Z,29.88
2022-08-16T10:10:30.524Z,30.28
2022-08-16T10:12:59.196Z,30.22
2022-08-16T10:15:30.242Z,29.98
2022-08-16T10:18:00.551Z,30.44
2022-08-16T10:20:33.914Z,29.99
2022-08-16T10:23:06.817Z,30.26
2022-08-16T10:27:00.759Z,30.56
2022-08-16T10:28:29.259Z,30.27
2022-08-16T10:30:59.613Z,30.01
2022-08-16T10:33:29.434Z,30.85
2022-08-16T10:36:02.586Z,30.81
2022-08-16T10:38:33.134Z,30.42
2022-08-16T10:41:04.854Z,30.60
2022-08-16T10:43:35.218Z,30.80
2022-08-16T10:46:03.514Z,30.28
2022-08-16T10:48:50.635Z,30.49
2022-08-16T10:51:18.723Z,30.54
2022-08-16T10:53:45.582Z,30.61
2022-08-16T10:56:52.497Z,30.88
2022-08-16T11:07:47.249Z,30.67
2022-08-16T11:16:00.276Z,30.98
2022-08-16T11:19:03.589Z,31.25
2022-08-16T11:21:28.538Z,31.33
2022-08-16T11:23:58.303Z,30.68
2022-08-16T11:26:26.197Z,30.80
2022-08-16T11:31:45.671Z,31.17
2022-08-16T11:34:21.322Z,31.02
2022-08-16T11:36:53.553Z,31.03
2022-08-16T11:39:28.243Z,31.19
2022-08-16T11:41:56.271Z,31.26
2022-08-16T11:44:52.099Z,31.31
2022-08-16T11:47:12.599Z,30.94
2022-08-16T11:49:42.405Z,30.92
2022-08-16T11:52:09.322Z,31.06
2022-08-16T11:54:36.734Z,31.05
2022-08-16T11:57:09.135Z,31.29
2022-08-16T11:59:37.433Z,31.12
2022-08-16T12:02:31.189Z,31.14
2022-08-16T12:04:55.995Z,31.08
2022-08-16T12:07:23.601Z,31.05
2022-08-16T12:09:53.225Z,31.16
2022-08-16T12:12:21.157Z,31.21
2022-08-16T12:14:55.885Z,31.18
2022-08-16T12:17:28.955Z,31.09
2022-08-16T12:19:59.517Z,30.89
2022-08-16T12:22:27.709Z,30.86
2022-08-16T12:24:55.001Z,31.18
2022-08-16T12:27:24.257Z,31.65
2022-08-16T12:29:54.820Z,31.67
2022-08-16T12:32:37.811Z,31.27
2022-08-16T12:35:12.373Z,31.40
2022-08-16T12:37:41.921Z,31.02
2022-08-16T12:40:22.433Z,31.24
2022-08-16T12:42:53.837Z,31.17
2022-08-16T12:45:22.882Z,31.22
2022-08-16T12:48:04.912Z,30.78
2022-08-16T12:50:39.458Z,31.24
2022-08-16T12:53:06.954Z,31.33
2022-08-16T12:55:42.188Z,30.95
2022-08-16T12:58:14.131Z,31.17
2022-08-16T13:01:08.192Z,30.79
2022-08-16T13:03:40.556Z,30.52
2022-08-16T13:06:08.388Z,30.51
2022-08-16T13:08:46.499Z,30.37
2022-08-16T13:11:17.782Z,30.43
2022-08-16T13:13:44.793Z,30.91
2022-08-16T13:16:20.332Z,30.75
2022-08-16T13:18:51.793Z,31.03
2022-08-16T13:21:24.238Z,30.89
2022-08-16T13:23:55.970Z,31.11
2022-08-16T13:26:26.624Z,31.33
2022-08-16T13:28:54.147Z,31.46
2022-08-16T13:31:21.041Z,31.66
2022-08-16T13:33:51.050Z,31.55
2022-08-16T13:36:48.738Z,31.26
2022-08-16T13:39:11.574Z,31.25
2022-08-16T13:41:41.164Z,31.38
2022-08-16T13:44:09.425Z,31.29
2022-08-16T13:46:37.544Z,31.29
2022-08-16T13:49:05.745Z,31.23
2022-08-16T13:51:33.150Z,30.84
2022-08-16T13:54:03.304Z,31.05
2022-08-16T13:56:37.445Z,31.24
2022-08-16T13:59:16.425Z,31.19
2022-08-16T14:01:54.672Z,31.19
2022-08-16T14:04:28.827Z,31.00
2022-08-16T14:07:06.941Z,30.94
2022-08-16T14:09:35.831Z,30.98
2022-08-16T14:12:17.539Z,30.48
2022-08-16T14:14:45.519Z,30.52
2022-08-16T14:17:13.729Z,30.54
2022-08-16T14:19:44.767Z,30.65
2022-08-16T14:22:30.713Z,30.60
2022-08-16T14:25:01.435Z,30.36
2022-08-16T14:27:32.859Z,30.43
2022-08-16T14:30:01.374Z,30.36
2022-08-16T14:32:33.314Z,30.26
2022-08-16T14:35:14.652Z,30.51
2022-08-16T14:37:43.021Z,30.49
2022-08-16T14:40:14.403Z,30.17
2022-08-16T14:42:44.016Z,30.16
2022-08-16T14:45:13.245Z,30.00
2022-08-16T14:47:40.882Z,29.69
2022-08-16T14:50:12.997Z,29.81
2022-08-16T14:52:58.491Z,29.85
2022-08-16T14:55:27.956Z,29.75
2022-08-16T14:57:55.324Z,29.56
2022-08-16T15:00:26.966Z,29.66
2022-08-16T15:03:02.274Z,29.40
2022-08-16T15:08:01.409Z,29.40
2022-08-16T15:10:31.864Z,29.32
2022-08-16T15:13:09.536Z,29.26
2022-08-16T15:15:38.399Z,29.34
2022-08-16T15:18:05.466Z,29.21
2022-08-16T15:20:34.490Z,29.13
2022-08-16T15:23:06.173Z,28.93
2022-08-16T15:25:41.343Z,28.97
2022-08-16T15:28:31.086Z,29.03
2022-08-16T15:31:04.430Z,28.77
2022-08-16T15:33:43.542Z,28.65
2022-08-16T15:36:13.135Z,28.81
2022-08-16T15:38:57.030Z,28.65
2022-08-16T15:42:05.237Z,28.72
2022-08-16T15:44:36.041Z,28.48
2022-08-16T15:47:12.586Z,28.49
2022-08-16T15:49:46.740Z,28.34
2022-08-16T15:52:24.816Z,28.20
2022-08-16T15:54:58.238Z,28.20
2022-08-16T15:57:26.953Z,28.11
2022-08-16T15:59:56.045Z,28.19
2022-08-16T16:02:49.506Z,27.99
2022-08-16T16:05:19.079Z,27.79
2022-08-16T16:07:56.842Z,27.84
2022-08-16T16:10:36.933Z,27.79
2022-08-16T16:13:10.418Z,27.74
2022-08-16T16:15:42.232Z,27.57
2022-08-16T16:18:13.088Z,27.46
2022-08-16T16:20:44.162Z,27.35
2022-08-16T16:23:11.386Z,27.27
2022-08-16T16:25:43.843Z,27.30
2022-08-16T16:29:06.428Z,27.15
2022-08-16T16:31:14.806Z,26.95
2022-08-16T16:33:44.293Z,26.94
2022-08-16T16:36:32.789Z,26.81
2022-08-16T16:39:05.688Z,26.66
2022-08-16T16:41:36.467Z,26.35
2022-08-16T16:44:04.096Z,26.46
2022-08-16T16:46:42.377Z,26.34
2022-08-16T16:49:15.022Z,26.29
2022-08-16T16:51:47.122Z,26.34
2022-08-16T16:54:27.497Z,26.30
2022-08-16T16:56:57.040Z,26.09
2022-08-16T16:59:25.270Z,26.18
2022-08-16T17:02:38.635Z,26.05
2022-08-16T17:04:47.480Z,25.81
2022-08-16T17:07:14.979Z,25.73
2022-08-16T17:09:44.009Z,25.77
2022-08-16T17:12:22.656Z,25.62
2022-08-16T17:14:55.845Z,25.66
2022-08-16T17:17:23.814Z,25.53
2022-08-16T17:19:51.029Z,25.53
2022-08-16T17:22:21.201Z,25.26
2022-08-16T17:24:52.518Z,25.26
2022-08-16T17:27:33.822Z,25.15
2022-08-16T17:30:15.718Z,25.33
2022-08-16T17:32:50.563Z,25.17
2022-08-16T17:35:34.706Z,24.96
2022-08-16T17:38:33.025Z,24.85
2022-08-16T17:41:08.108Z,24.72
2022-08-16T17:43:44.587Z,24.77
2022-08-16T17:46:50.527Z,24.72
2022-08-16T17:49:06.857Z,24.65
2022-08-16T17:51:33.935Z,24.63
2022-08-16T17:54:30.915Z,24.37
2022-08-16T17:57:00.872Z,24.38
2022-08-16T17:59:28.953Z,24.25
2022-08-16T18:01:56.651Z,24.22
2022-08-16T18:04:48.585Z,24.28
2022-08-16T18:07:16.374Z,24.05
2022-08-16T18:10:04.972Z,24.03
2022-08-16T18:12:50.909Z,24.00
2022-08-16T18:15:22.963Z,23.92
2022-08-16T18:17:54.395Z,23.91
2022-08-16T18:20:23.692Z,23.84
2022-08-16T18:22:50.654Z,23.81
2022-08-16T18:25:17.771Z,23.72
2022-08-16T18:27:52.956Z,23.93
2022-08-16T18:30:32.138Z,23.82
2022-08-16T18:35:52.098Z,23.78
2022-08-16T18:38:25.221Z,23.66
2022-08-16T18:40:52.516Z,23.64
2022-08-16T18:43:21.708Z,23.57
2022-08-16T18:46:34.836Z,23.69
2022-08-16T18:49:01.895Z,23.70
2022-08-16T18:51:28.748Z,23.54
2022-08-16T18:53:55.638Z,23.65
2022-08-16T18:56:22.492Z,23.53
2022-08-16T18:58:51.593Z,23.50
2022-08-16T19:01:18.840Z,23.44
2022-08-16T19:03:45.751Z,23.46
2022-08-16T19:06:16.529Z,23.48
2022-08-16T19:08:44.460Z,23.47
2022-08-16T19:11:15.089Z,23.30
2022-08-16T19:13:42.273Z,23.38
2022-08-16T19:16:09.083Z,23.30
2022-08-16T19:18:36.681Z,23.37
2022-08-16T19:21:05.612Z,23.39
2022-08-16T19:23:35.836Z,23.30
2022-08-16T19:26:24.486Z,23.26
2022-08-16T19:28:58.598Z,23.39
2022-08-16T19:31:30.452Z,23.21
2022-08-16T19:33:58.204Z,23.22
2022-08-16T19:36:38.845Z,23.09
2022-08-16T19:39:10.677Z,23.16
2022-08-16T19:41:41.736Z,23.20
2022-08-16T19:44:09.921Z,23.16
2022-08-16T19:46:37.951Z,23.03
2022-08-16T19:49:06.482Z,22.99
2022-08-16T19:51:33.429Z,22.96
2022-08-16T19:54:00.788Z,22.92
2022-08-16T19:56:27.656Z,22.99
2022-08-16T19:59:18.743Z,22.92
2022-08-16T20:01:44.936Z,22.89
2022-08-16T20:04:12.846Z,22.69
2022-08-16T20:06:46.386Z,22.73
2022-08-16T20:09:15.067Z,22.88
2022-08-16T20:12:06.776Z,22.82
2022-08-16T20:14:33.692Z,22.82
2022-08-16T20:17:01.380Z,22.84
2022-08-16T20:19:36.056Z,22.61
2022-08-16T20:22:42.140Z,22.56
2022-08-16T20:25:09.997Z,22.67
2022-08-16T20:27:37.359Z,22.70
2022-08-16T20:30:06.065Z,22.71
2022-08-16T20:32:36.481Z,22.59
2022-08-16T20:35:16.611Z,22.71
2022-08-16T20:37:43.544Z,22.64
2022-08-16T20:40:34.801Z,22.55
2022-08-16T20:43:07.726Z,22.67
2022-08-16T20:45:36.345Z,22.36
2022-08-16T20:48:04.641Z,22.50
2022-08-16T20:50:42.690Z,22.46
2022-08-16T20:53:10.678Z,22.50
2022-08-16T20:55:38.481Z,22.59
2022-08-16T20:58:05.634Z,22.46
2022-08-16T21:00:32.701Z,22.43
2022-08-16T21:03:01.012Z,22.41
2022-08-16T21:05:31.195Z,22.36
2022-08-16T21:07:58.852Z,22.43
2022-08-16T21:10:37.890Z,22.43
2022-08-16T21:13:04.933Z,22.26
2022-08-16T21:15:33.176Z,22.22
2022-08-16T21:18:00.817Z,22.14
2022-08-16T21:20:39.936Z,22.01
2022-08-16T21:23:08.250Z,22.43
2022-08-16T21:28:41.652Z,22.41
2022-08-16T21:31:11.965Z,22.21
2022-08-16T21:33:39.279Z,22.20
2022-08-16T21:36:06.819Z,22.23
2022-08-16T21:38:33.643Z,22.14
2022-08-16T21:41:10.021Z,22.27
2022-08-16T21:43:36.982Z,22.05
2022-08-16T21:46:05.361Z,22.21
2022-08-16T21:48:35.799Z,22.21
2022-08-16T21:51:09.675Z,22.04
2022-08-16T21:56:17.971Z,22.20
2022-08-16T21:58:46.371Z,22.04
2022-08-16T22:01:13.792Z,22.03
2022-08-16T22:03:40.662Z,22.06
2022-08-16T22:06:13.257Z,22.00
2022-08-16T22:11:29.668Z,21.93
2022-08-16T22:13:59.164Z,21.87
2022-08-16T22:16:35.551Z,21.87
2022-08-16T22:19:04.093Z,21.81
2022-08-16T22:21:32.698Z,21.86
2022-08-16T22:24:00.219Z,21.81
2022-08-16T22:26:32.401Z,21.79
2022-08-16T22:29:13.027Z,21.69
2022-08-16T22:31:41.655Z,21.63
2022-08-16T22:34:26.404Z,21.57
2022-08-16T22:36:53.365Z,21.61
2022-08-16T22:39:22.973Z,21.40
2022-08-16T22:41:50.135Z,21.44
2022-08-16T22:44:17.250Z,21.46
2022-08-16T22:46:44.651Z,21.48
2022-08-16T22:49:12.520Z,21.48
2022-08-16T22:51:46.191Z,21.33
2022-08-16T22:54:45.822Z,21.25
2022-08-16T22:57:04.414Z,21.28
2022-08-16T22:59:32.623Z,21.21
2022-08-16T23:02:02.819Z,21.23
2022-08-16T23:04:30.389Z,21.16
2022-08-16T23:06:57.361Z,21.19
2022-08-16T23:09:24.757Z,21.09
2022-08-16T23:11:52.637Z,21.08
2022-08-16T23:14:19.593Z,21.02
2022-08-16T23:16:46.406Z,21.11
2022-08-16T23:19:16.084Z,21.09
2022-08-16T23:21:45.209Z,21.06
2022-08-16T23:24:13.170Z,21.13
2022-08-16T23:26:47.610Z,21.24
2022-08-16T23:29:23.796Z,21.18
2022-08-16T23:32:09.529Z,21.32
2022-08-16T23:34:39.494Z,21.31
2022-08-16T23:37:06.306Z,21.21
2022-08-16T23:39:38.606Z,21.22
2022-08-16T23:42:13.112Z,21.22
2022-08-16T23:44:55.922Z,21.24
2022-08-16T23:47:26.321Z,20.97
2022-08-16T23:50:01.387Z,20.95
2022-08-16T23:52:42.292Z,21.10
2022-08-16T23:55:17.601Z,21.00
2022-08-16T23:57:45.702Z,21.08
